createdAt,value
2022-12-23T00:00:02.919Z,11.2
2022-12-23T00:05:01.357Z,11.3
2022-12-23T00:10:01.313Z,11.7
2022-12-23T00:15:01.880Z,11.7
2022-12-23T00:20:01.439Z,11.5
2022-12-23T00:30:02.622Z,10.2
2022-12-23T00:35:01.306Z,9.8
2022-12-23T00:40:07.246Z,9.0
2022-12-23T00:45:01.672Z,8.6
2022-12-23T00:50:01.422Z,8.6
2022-12-23T00:55:01.284Z,8.9
2022-12-23T01:00:01.824Z,8.8
2022-12-23T01:05:01.286Z,8.6
2022-12-23T01:10:01.442Z,8.2
2022-12-23T01:15:01.866Z,7.9
2022-12-23T01:20:01.342Z,7.7
2022-12-23T01:25:01.262Z,7.0
2022-12-23T01:30:02.847Z,7.0
2022-12-23T01:40:01.410Z,6.9
2022-12-23T01:45:13.850Z,7.3
2022-12-23T01:50:01.269Z,7.7
2022-12-23T01:55:01.311Z,7.7
2022-12-23T02:00:01.870Z,7.7
2022-12-23T02:05:01.382Z,7.4
2022-12-23T02:10:01.263Z,7.0
2022-12-23T02:15:08.983Z,7.1
2022-12-23T02:20:01.424Z,7.0
2022-12-23T02:25:01.380Z,6.8
2022-12-23T02:30:07.282Z,6.8
2022-12-23T02:35:01.411Z,7.4
2022-12-23T02:40:01.279Z,6.9
2022-12-23T02:45:09.433Z,6.8
2022-12-23T02:50:01.271Z,7.0
2022-12-23T02:55:01.454Z,7.2
2022-12-23T03:00:02.821Z,6.4
2022-12-23T03:05:01.697Z,6.3
2022-12-23T03:10:01.313Z,5.5
2022-12-23T03:15:11.941Z,4.9
2022-12-23T03:20:01.291Z,3.9
2022-12-23T03:25:01.499Z,3.0
2022-12-23T03:30:06.268Z,2.2
2022-12-23T03:35:01.335Z,1.6
2022-12-23T03:40:01.268Z,0.8
2022-12-23T04:05:09.825Z,0.0
2022-12-23T04:15:07.566Z,0.0
2022-12-23T04:30:02.069Z,0.0
2022-12-23T04:45:02.062Z,0.0
2022-12-23T05:00:02.059Z,0.0
2022-12-23T05:15:01.668Z,0.0
2022-12-23T05:40:02.364Z,0.0
2022-12-23T05:45:01.889Z,0.0
2022-12-23T06:00:01.668Z,0.0
2022-12-23T06:05:01.100Z,0.0
2022-12-23T06:30:03.096Z,0.0
2022-12-23T06:45:01.791Z,0.0
2022-12-23T06:55:01.382Z,0.0
2022-12-23T07:00:02.971Z,0.0
2022-12-23T07:05:01.100Z,0.0
2022-12-23T07:10:01.196Z,0.0
2022-12-23T07:15:02.805Z,0.0
2022-12-23T07:20:01.164Z,0.0
2022-12-23T07:30:02.355Z,0.0
2022-12-23T07:40:09.344Z,0.0
2022-12-23T07:45:01.620Z,0.0
2022-12-23T07:50:01.204Z,0.0
2022-12-23T07:55:01.284Z,0.1
2022-12-23T08:00:01.990Z,0.1
2022-12-23T08:10:01.343Z,0.1
2022-12-23T08:15:02.148Z,0.1
2022-12-23T08:30:01.774Z,0.2
2022-12-23T08:45:02.481Z,0.1
2022-12-23T08:50:01.343Z,0.1
2022-12-23T09:05:01.123Z,0.0
2022-12-23T09:10:01.488Z,0.0
2022-12-23T09:15:01.823Z,0.0
2022-12-23T09:30:02.011Z,0.0
2022-12-23T10:05:06.211Z,0.0
2022-12-23T10:15:05.246Z,0.0
2022-12-23T10:20:01.592Z,0.0
2022-12-23T10:25:01.427Z,0.2
2022-12-23T10:55:04.064Z,0.0
2022-12-23T11:00:12.115Z,0.4
2022-12-23T11:05:00.938Z,0.3
2022-12-23T11:15:01.787Z,0.6
2022-12-23T11:25:01.042Z,0.4
2022-12-23T11:30:01.627Z,0.6
2022-12-23T11:35:02.890Z,0.4
2022-12-23T11:40:00.958Z,0.7
2022-12-23T11:45:05.666Z,1.0
2022-12-23T11:50:00.947Z,1.2
2022-12-23T11:55:01.121Z,1.2
2022-12-23T12:00:02.885Z,1.0
2022-12-23T12:05:01.064Z,0.7
2022-12-23T12:10:00.978Z,0.4
2022-12-23T12:15:01.731Z,0.2
2022-12-23T12:20:01.126Z,0.0
2022-12-23T12:25:00.956Z,0.0
2022-12-23T12:30:15.052Z,0.0
2022-12-23T12:40:01.442Z,0.1
2022-12-23T12:45:09.807Z,0.1
2022-12-23T12:50:01.194Z,0.1
2022-12-23T12:55:00.968Z,0.7
2022-12-23T13:00:14.133Z,0.7
2022-12-23T13:05:00.968Z,1.1
2022-12-23T13:10:01.245Z,1.9
2022-12-23T13:15:08.779Z,1.9
2022-12-23T13:20:00.941Z,2.1
2022-12-23T13:25:01.016Z,2.7
2022-12-23T13:30:06.329Z,4.6
2022-12-23T13:35:00.976Z,7.4
2022-12-23T13:40:11.216Z,7.8
2022-12-23T13:45:02.725Z,8.4
2022-12-23T13:50:01.144Z,8.4
2022-12-23T13:55:00.980Z,6.2
2022-12-23T14:00:22.313Z,2.6
2022-12-23T14:05:01.022Z,2.4
2022-12-23T14:10:01.135Z,1.2
2022-12-23T14:15:16.484Z,1.3
2022-12-23T14:25:00.967Z,1.9
2022-12-23T14:30:17.443Z,2.2
2022-12-23T14:35:00.957Z,2.8
2022-12-23T14:40:01.203Z,3.8
2022-12-23T14:45:17.221Z,5.2
2022-12-23T14:50:01.127Z,6.2
2022-12-23T15:00:03.566Z,7.4
2022-12-23T15:05:01.093Z,7.5
2022-12-23T15:10:02.201Z,7.2
2022-12-23T15:15:04.131Z,7.5
2022-12-23T15:20:01.218Z,7.9
2022-12-23T15:25:01.066Z,8.7
2022-12-23T15:30:01.917Z,9.8
2022-12-23T15:35:00.968Z,9.8
2022-12-23T15:40:13.926Z,10.5
2022-12-23T15:45:16.990Z,9.2
2022-12-23T15:50:01.367Z,8.2
2022-12-23T15:55:00.998Z,6.6
2022-12-23T16:00:02.748Z,5.9
2022-12-23T16:05:01.125Z,4.2
2022-12-23T16:10:01.019Z,4.3
2022-12-23T16:15:01.524Z,3.7
2022-12-23T16:20:00.975Z,3.3
2022-12-23T16:25:01.148Z,3.1
2022-12-23T16:30:03.942Z,3.5
2022-12-23T16:35:00.954Z,5.2
2022-12-23T16:40:01.111Z,8.6
2022-12-23T16:45:01.537Z,9.1
2022-12-23T16:50:01.167Z,10.2
2022-12-23T16:55:01.612Z,10.7
2022-12-23T17:00:01.499Z,10.4
2022-12-23T17:05:01.211Z,8.3
2022-12-23T17:10:01.057Z,8.9
2022-12-23T17:15:02.569Z,8.7
2022-12-23T17:20:01.031Z,8.8
2022-12-23T17:30:01.613Z,8.5
2022-12-23T17:35:01.179Z,8.4
2022-12-23T17:40:01.272Z,8.9
2022-12-23T17:45:01.684Z,9.9
2022-12-23T17:50:01.215Z,10.8
2022-12-23T17:55:01.024Z,12.7
2022-12-23T18:00:01.831Z,14.0
2022-12-23T18:05:00.981Z,14.2
2022-12-23T18:10:01.391Z,13.8
2022-12-23T18:15:02.150Z,13.4
2022-12-23T18:20:00.987Z,11.9
2022-12-23T18:25:01.032Z,11.8
2022-12-23T18:30:01.728Z,13.0
2022-12-23T18:35:00.985Z,14.0
2022-12-23T18:40:00.985Z,15.0
2022-12-23T18:45:01.608Z,16.5
2022-12-23T18:50:01.190Z,16.2
2022-12-23T18:55:01.102Z,16.9
2022-12-23T19:00:04.163Z,17.1
2022-12-23T19:05:01.031Z,16.8
2022-12-23T19:10:01.070Z,16.5
2022-12-23T19:15:02.195Z,18.2
2022-12-23T19:20:01.038Z,18.3
2022-12-23T19:25:07.122Z,17.8
2022-12-23T19:30:01.525Z,16.6
2022-12-23T19:35:01.981Z,15.3
2022-12-23T19:40:01.042Z,12.1
2022-12-23T19:45:01.549Z,9.6
2022-12-23T19:50:01.034Z,8.1
2022-12-23T19:55:01.331Z,7.4
2022-12-23T20:00:01.593Z,7.2
2022-12-23T20:05:01.073Z,7.4
2022-12-23T20:10:01.226Z,7.5
2022-12-23T20:15:01.981Z,8.2
2022-12-23T20:20:01.564Z,9.9
2022-12-23T20:25:01.299Z,11.2
2022-12-23T20:30:01.634Z,12.6
2022-12-23T20:35:01.147Z,14.1
2022-12-23T20:40:00.996Z,15.7
2022-12-23T20:45:01.604Z,16.5
2022-12-23T20:50:01.037Z,17.2
2022-12-23T20:55:00.982Z,18.3
2022-12-23T21:00:02.877Z,19.0
2022-12-23T21:05:01.157Z,19.2
2022-12-23T21:10:01.172Z,19.3
2022-12-23T21:15:01.630Z,19.9
2022-12-23T21:20:08.281Z,19.4
2022-12-23T21:25:01.053Z,19.0
2022-12-23T21:30:01.788Z,18.2
2022-12-23T21:35:01.252Z,17.1
2022-12-23T21:40:01.157Z,15.2
2022-12-23T21:45:01.467Z,13.7
2022-12-23T21:50:01.040Z,11.0
2022-12-23T21:55:01.157Z,9.4
2022-12-23T22:00:01.825Z,8.0
2022-12-23T22:05:01.080Z,7.1
2022-12-23T22:10:01.056Z,6.6
2022-12-23T22:15:12.599Z,7.0
2022-12-23T22:25:00.986Z,7.4
2022-12-23T22:30:07.031Z,7.8
2022-12-23T22:35:01.185Z,7.5
2022-12-23T22:40:01.033Z,7.6
2022-12-23T22:45:02.005Z,7.8
2022-12-23T22:50:01.052Z,7.8
2022-12-23T22:55:01.068Z,7.2
2022-12-23T23:00:13.978Z,5.9
2022-12-23T23:05:01.190Z,4.4
2022-12-23T23:10:01.805Z,2.8
2022-12-23T23:15:01.620Z,1.1
2022-12-23T23:35:11.327Z,0.4
2022-12-23T23:40:01.043Z,0.4
2022-12-23T23:45:01.634Z,0.4
2022-12-23T23:50:00.981Z,0.6
2022-12-23T23:55:01.155Z,0.4
